sensor_id;sensor_type;location;lat;lon;timestamp;pressure;altitude;pressure_sealevel;temperature;humidity
71974;BME280;59840;52.122;5.404;2023-02-19T00:01:23;101847.44;;;9.47;100.00
71974;BME280;59840;52.122;5.404;2023-02-19T00:03:55;101848.47;;;9.46;100.00
71974;BME280;59840;52.122;5.404;2023-02-19T00:06:24;101844.22;;;9.45;100.00
71974;BME280;59840;52.122;5.404;2023-02-19T00:08:51;101847.84;;;9.44;100.00
71974;BME280;59840;52.122;5.404;2023-02-19T00:11:20;101849.69;;;9.44;100.00
71974;BME280;59840;52.122;5.404;2023-02-19T00:13:50;101855.97;;;9.43;100.00
71974;BME280;59840;52.122;5.404;2023-02-19T00:18:48;101855.97;;;9.43;100.00
71974;BME280;59840;52.122;5.404;2023-02-19T00:21:15;101857.59;;;9.44;100.00
71974;BME280;59840;52.122;5.404;2023-02-19T00:23:42;101854.34;;;9.41;100.00
71974;BME280;59840;52.122;5.404;2023-02-19T00:26:10;101862.25;;;9.41;100.00
71974;BME280;59840;52.122;5.404;2023-02-19T00:28:44;101859.63;;;9.41;100.00
71974;BME280;59840;52.122;5.404;2023-02-19T00:31:22;101866.50;;;9.43;100.00
71974;BME280;59840;52.122;5.404;2023-02-19T00:33:51;101867.31;;;9.43;100.00
71974;BME280;59840;52.122;5.404;2023-02-19T00:36:19;101870.97;;;9.42;100.00
71974;BME280;59840;52.122;5.404;2023-02-19T00:38:47;101864.91;;;9.41;100.00
71974;BME280;59840;52.122;5.404;2023-02-19T00:41:14;101868.53;;;9.40;100.00
71974;BME280;59840;52.122;5.404;2023-02-19T00:43:53;101869.34;;;9.41;100.00
71974;BME280;59840;52.122;5.404;2023-02-19T00:48:57;101872.19;;;9.39;100.00
71974;BME280;59840;52.122;5.404;2023-02-19T00:51:26;101863.50;;;9.39;100.00
71974;BME280;59840;52.122;5.404;2023-02-19T00:53:53;101870.59;;;9.38;100.00
71974;BME280;59840;52.122;5.404;2023-02-19T00:56:20;101870.59;;;9.38;100.00
71974;BME280;59840;52.122;5.404;2023-02-19T00:58:47;101869.78;;;9.38;100.00
71974;BME280;59840;52.122;5.404;2023-02-19T01:01:14;101860.84;;;9.39;100.00
71974;BME280;59840;52.122;5.404;2023-02-19T01:03:41;101874.22;;;9.37;100.00
71974;BME280;59840;52.122;5.404;2023-02-19T01:06:09;101875.84;;;9.38;100.00
71974;BME280;59840;52.122;5.404;2023-02-19T01:08:36;101876.06;;;9.37;100.00
71974;BME280;59840;52.122;5.404;2023-02-19T01:11:04;101874.22;;;9.37;100.00
71974;BME280;59840;52.122;5.404;2023-02-19T01:13:32;101886.38;;;9.38;100.00
71974;BME280;59840;52.122;5.404;2023-02-19T01:16:21;101882.72;;;9.39;100.00
71974;BME280;59840;52.122;5.404;2023-02-19T01:18:50;101895.31;;;9.37;100.00
71974;BME280;59840;52.122;5.404;2023-02-19T01:21:22;101893.47;;;9.38;100.00
71974;BME280;59840;52.122;5.404;2023-02-19T01:23:49;101904.22;;;9.36;100.00
71974;BME280;59840;52.122;5.404;2023-02-19T01:26:19;101889.47;;;9.35;100.00
71974;BME280;59840;52.122;5.404;2023-02-19T01:28:47;101897.38;;;9.35;100.00
71974;BME280;59840;52.122;5.404;2023-02-19T01:31:20;101898.38;;;9.34;100.00
71974;BME280;59840;52.122;5.404;2023-02-19T01:33:49;101901.81;;;9.35;100.00
71974;BME280;59840;52.122;5.404;2023-02-19T01:36:16;101906.50;;;9.33;100.00
71974;BME280;59840;52.122;5.404;2023-02-19T01:38:43;101901.44;;;9.31;100.00
71974;BME280;59840;52.122;5.404;2023-02-19T01:41:13;101905.91;;;9.31;100.00
71974;BME280;59840;52.122;5.404;2023-02-19T01:46:38;101904.50;;;9.28;100.00
71974;BME280;59840;52.122;5.404;2023-02-19T01:49:29;101897.59;;;9.27;100.00
71974;BME280;59840;52.122;5.404;2023-02-19T01:52:05;101899.03;;;9.23;100.00
71974;BME280;59840;52.122;5.404;2023-02-19T01:54:37;101909.78;;;9.22;100.00
71974;BME280;59840;52.122;5.404;2023-02-19T01:57:08;101907.34;;;9.20;100.00
71974;BME280;59840;52.122;5.404;2023-02-19T01:59:36;101907.56;;;9.19;100.00
71974;BME280;59840;52.122;5.404;2023-02-19T02:02:04;101906.75;;;9.18;100.00
71974;BME280;59840;52.122;5.404;2023-02-19T02:04:32;101903.50;;;9.16;100.00
71974;BME280;59840;52.122;5.404;2023-02-19T02:07:01;101895.00;;;9.14;100.00
71974;BME280;59840;52.122;5.404;2023-02-19T02:09:29;101904.75;;;9.14;100.00
71974;BME280;59840;52.122;5.404;2023-02-19T02:12:15;101909.19;;;9.13;100.00
71974;BME280;59840;52.122;5.404;2023-02-19T02:14:46;101912.84;;;9.12;100.00
71974;BME280;59840;52.122;5.404;2023-02-19T02:17:24;101910.22;;;9.12;100.00
71974;BME280;59840;52.122;5.404;2023-02-19T02:22:37;101906.38;;;9.08;100.00
71974;BME280;59840;52.122;5.404;2023-02-19T02:28:26;101912.44;;;9.08;100.00
71974;BME280;59840;52.122;5.404;2023-02-19T02:31:14;101916.09;;;9.07;100.00
71974;BME280;59840;52.122;5.404;2023-02-19T02:33:48;101911.03;;;9.06;100.00
71974;BME280;59840;52.122;5.404;2023-02-19T02:36:29;101908.59;;;9.04;100.00
71974;BME280;59840;52.122;5.404;2023-02-19T02:38:57;101913.06;;;9.04;100.00
71974;BME280;59840;52.122;5.404;2023-02-19T02:41:25;101921.78;;;9.04;100.00
71974;BME280;59840;52.122;5.404;2023-02-19T02:43:52;101924.59;;;9.03;100.00
71974;BME280;59840;52.122;5.404;2023-02-19T02:46:26;101922.78;;;9.03;100.00
71974;BME280;59840;52.122;5.404;2023-02-19T02:48:56;101923.00;;;9.02;100.00
71974;BME280;59840;52.122;5.404;2023-02-19T02:51:35;101922.41;;;9.00;100.00
71974;BME280;59840;52.122;5.404;2023-02-19T02:54:14;101925.88;;;9.00;100.00
71974;BME280;59840;52.122;5.404;2023-02-19T02:57:01;101929.50;;;8.99;100.00
71974;BME280;59840;52.122;5.404;2023-02-19T02:59:31;101925.06;;;9.00;100.00
71974;BME280;59840;52.122;5.404;2023-02-19T03:02:05;101924.25;;;8.99;100.00
71974;BME280;59840;52.122;5.404;2023-02-19T03:08:36;101929.50;;;8.99;100.00
71974;BME280;59840;52.122;5.404;2023-02-19T03:11:09;101927.88;;;8.98;100.00
71974;BME280;59840;52.122;5.404;2023-02-19T03:14:05;101936.81;;;8.97;100.00
71974;BME280;59840;52.122;5.404;2023-02-19T03:16:56;101946.13;;;9.00;100.00
71974;BME280;59840;52.122;5.404;2023-02-19T03:19:45;101941.06;;;8.98;100.00
71974;BME280;59840;52.122;5.404;2023-02-19T03:22:23;101937.59;;;8.98;100.00
71974;BME280;59840;52.122;5.404;2023-02-19T03:24:55;101937.59;;;8.98;100.00
71974;BME280;59840;52.122;5.404;2023-02-19T03:27:42;101941.06;;;8.98;100.00
71974;BME280;59840;52.122;5.404;2023-02-19T03:30:14;101942.88;;;8.98;100.00
71974;BME280;59840;52.122;5.404;2023-02-19T03:32:50;101939.03;;;8.94;100.00
71974;BME280;59840;52.122;5.404;2023-02-19T03:35:22;101960.09;;;8.94;100.00
71974;BME280;59840;52.122;5.404;2023-02-19T03:40:28;101948.56;;;8.95;100.00
71974;BME280;59840;52.122;5.404;2023-02-19T03:43:23;101957.25;;;8.95;100.00
71974;BME280;59840;52.122;5.404;2023-02-19T03:46:00;101962.13;;;8.92;100.00
71974;BME280;59840;52.122;5.404;2023-02-19T03:48:35;101964.75;;;8.92;100.00
71974;BME280;59840;52.122;5.404;2023-02-19T03:51:16;101958.69;;;8.91;100.00
71974;BME280;59840;52.122;5.404;2023-02-19T03:53:51;101970.00;;;8.92;100.00
71974;BME280;59840;52.122;5.404;2023-02-19T03:56:38;101972.84;;;8.90;100.00
71974;BME280;59840;52.122;5.404;2023-02-19T04:02:14;101986.22;;;8.82;100.00
71974;BME280;59840;52.122;5.404;2023-02-19T04:04:52;101989.06;;;8.81;100.00
71974;BME280;59840;52.122;5.404;2023-02-19T04:07:21;101984.00;;;8.79;100.00
71974;BME280;59840;52.122;5.404;2023-02-19T04:09:49;101992.91;;;8.78;100.00
71974;BME280;59840;52.122;5.404;2023-02-19T04:12:17;101999.19;;;8.77;100.00
71974;BME280;59840;52.122;5.404;2023-02-19T04:15:05;101998.38;;;8.77;100.00
71974;BME280;59840;52.122;5.404;2023-02-19T04:17:36;102005.44;;;8.76;100.00
71974;BME280;59840;52.122;5.404;2023-02-19T04:20:07;102003.81;;;8.75;100.00
71974;BME280;59840;52.122;5.404;2023-02-19T04:22:36;102005.44;;;8.76;100.00
71974;BME280;59840;52.122;5.404;2023-02-19T04:25:04;102010.91;;;8.74;100.00
71974;BME280;59840;52.122;5.404;2023-02-19T04:27:30;102014.97;;;8.77;100.00
71974;BME280;59840;52.122;5.404;2023-02-19T04:29:58;102009.69;;;8.77;100.00
71974;BME280;59840;52.122;5.404;2023-02-19T04:32:24;102014.16;;;8.77;100.00
71974;BME280;59840;52.122;5.404;2023-02-19T04:34:51;102020.44;;;8.76;100.00
71974;BME280;59840;52.122;5.404;2023-02-19T04:37:19;102028.31;;;8.76;100.00
71974;BME280;59840;52.122;5.404;2023-02-19T04:39:46;102028.31;;;8.76;100.00
71974;BME280;59840;52.122;5.404;2023-02-19T04:42:12;102026.91;;;8.73;100.00
71974;BME280;59840;52.122;5.404;2023-02-19T04:44:39;102046.13;;;8.73;100.00
71974;BME280;59840;52.122;5.404;2023-02-19T04:47:05;102040.88;;;8.73;100.00
71974;BME280;59840;52.122;5.404;2023-02-19T04:49:32;102047.75;;;8.74;100.00
71974;BME280;59840;52.122;5.404;2023-02-19T04:51:58;102053.81;;;8.75;100.00
71974;BME280;59840;52.122;5.404;2023-02-19T04:54:25;102057.28;;;8.76;100.00
71974;BME280;59840;52.122;5.404;2023-02-19T04:56:51;102065.97;;;8.76;100.00
71974;BME280;59840;52.122;5.404;2023-02-19T04:59:18;102069.63;;;8.75;100.00
71974;BME280;59840;52.122;5.404;2023-02-19T05:01:45;102068.81;;;8.74;100.00
71974;BME280;59840;52.122;5.404;2023-02-19T05:04:11;102075.88;;;8.74;100.00
71974;BME280;59840;52.122;5.404;2023-02-19T05:06:38;102067.19;;;8.73;100.00
71974;BME280;59840;52.122;5.404;2023-02-19T05:09:04;102076.69;;;8.74;100.00
71974;BME280;59840;52.122;5.404;2023-02-19T05:11:31;102069.00;;;8.73;100.00
71974;BME280;59840;52.122;5.404;2023-02-19T05:13:57;102077.09;;;8.71;100.00
71974;BME280;59840;52.122;5.404;2023-02-19T05:16:24;102085.59;;;8.73;100.00
71974;BME280;59840;52.122;5.404;2023-02-19T05:18:51;102077.72;;;8.73;100.00
71974;BME280;59840;52.122;5.404;2023-02-19T05:21:17;102082.97;;;8.73;100.00
71974;BME280;59840;52.122;5.404;2023-02-19T05:23:44;102087.44;;;8.73;100.00
71974;BME280;59840;52.122;5.404;2023-02-19T05:26:14;102082.38;;;8.71;100.00
71974;BME280;59840;52.122;5.404;2023-02-19T05:28:44;102095.53;;;8.71;100.00
71974;BME280;59840;52.122;5.404;2023-02-19T05:31:12;102110.28;;;8.72;100.00
71974;BME280;59840;52.122;5.404;2023-02-19T05:33:39;102100.78;;;8.71;100.00
71974;BME280;59840;52.122;5.404;2023-02-19T05:36:10;102104.44;;;8.70;100.00
71974;BME280;59840;52.122;5.404;2023-02-19T05:38:37;102106.44;;;8.68;100.00
71974;BME280;59840;52.122;5.404;2023-02-19T05:41:14;102095.91;;;8.68;100.00
71974;BME280;59840;52.122;5.404;2023-02-19T05:43:43;102097.16;;;8.66;100.00
71974;BME280;59840;52.122;5.404;2023-02-19T05:46:12;102105.84;;;8.66;100.00
71974;BME280;59840;52.122;5.404;2023-02-19T05:48:39;102091.28;;;8.64;100.00
71974;BME280;59840;52.122;5.404;2023-02-19T05:51:09;102098.97;;;8.65;100.00
71974;BME280;59840;52.122;5.404;2023-02-19T05:53:37;102095.53;;;8.65;100.00
71974;BME280;59840;52.122;5.404;2023-02-19T05:56:04;102096.34;;;8.65;100.00
71974;BME280;59840;52.122;5.404;2023-02-19T05:58:31;102099.19;;;8.64;100.00
71974;BME280;59840;52.122;5.404;2023-02-19T06:00:57;102116.78;;;8.63;100.00
71974;BME280;59840;52.122;5.404;2023-02-19T06:03:24;102115.78;;;8.64;100.00
71974;BME280;59840;52.122;5.404;2023-02-19T06:05:50;102117.78;;;8.62;100.00
71974;BME280;59840;52.122;5.404;2023-02-19T06:08:17;102116.97;;;8.62;100.00
71974;BME280;59840;52.122;5.404;2023-02-19T06:10:43;102113.75;;;8.60;100.00
71974;BME280;59840;52.122;5.404;2023-02-19T06:13:10;102121.03;;;8.58;100.00
71974;BME280;59840;52.122;5.404;2023-02-19T06:15:37;102133.38;;;8.57;100.00
71974;BME280;59840;52.122;5.404;2023-02-19T06:18:04;102141.25;;;8.57;100.00
71974;BME280;59840;52.122;5.404;2023-02-19T06:20:30;102141.44;;;8.56;100.00
71974;BME280;59840;52.122;5.404;2023-02-19T06:22:58;102148.53;;;8.55;100.00
71974;BME280;59840;52.122;5.404;2023-02-19T06:25:24;102149.34;;;8.56;100.00
71974;BME280;59840;52.122;5.404;2023-02-19T06:27:51;102157.25;;;8.56;100.00
71974;BME280;59840;52.122;5.404;2023-02-19T06:30:18;102159.88;;;8.56;100.00
71974;BME280;59840;52.122;5.404;2023-02-19T06:32:44;102171.97;;;8.50;100.00
71974;BME280;59840;52.122;5.404;2023-02-19T06:35:11;102168.75;;;8.48;100.00
71974;BME280;59840;52.122;5.404;2023-02-19T06:37:37;102163.88;;;8.45;100.00
71974;BME280;59840;52.122;5.404;2023-02-19T06:40:04;102172.78;;;8.44;100.00
71974;BME280;59840;52.122;5.404;2023-02-19T06:42:31;102175.59;;;8.43;100.00
71974;BME280;59840;52.122;5.404;2023-02-19T06:44:58;102175.78;;;8.41;100.00
71974;BME280;59840;52.122;5.404;2023-02-19T06:47:24;102174.16;;;8.40;100.00
71974;BME280;59840;52.122;5.404;2023-02-19T06:49:51;102173.34;;;8.39;100.00
71974;BME280;59840;52.122;5.404;2023-02-19T06:52:17;102176.38;;;8.36;100.00
71974;BME280;59840;52.122;5.404;2023-02-19T06:54:44;102189.72;;;8.35;100.00
71974;BME280;59840;52.122;5.404;2023-02-19T06:57:10;102186.09;;;8.36;100.00
71974;BME280;59840;52.122;5.404;2023-02-19T06:59:37;102188.09;;;8.34;100.00
71974;BME280;59840;52.122;5.404;2023-02-19T07:02:04;102195.19;;;8.33;100.00
71974;BME280;59840;52.122;5.404;2023-02-19T07:04:30;102202.06;;;8.34;100.00
71974;BME280;59840;52.122;5.404;2023-02-19T07:06:57;102208.31;;;8.33;100.00
71974;BME280;59840;52.122;5.404;2023-02-19T07:09:25;102221.28;;;8.35;100.00
71974;BME280;59840;52.122;5.404;2023-02-19T07:11:53;102222.09;;;8.35;100.00
71974;BME280;59840;52.122;5.404;2023-02-19T07:14:20;102226.53;;;8.35;100.00
71974;BME280;59840;52.122;5.404;2023-02-19T07:16:47;102226.53;;;8.35;100.00
71974;BME280;59840;52.122;5.404;2023-02-19T07:19:14;102224.91;;;8.34;100.00
71974;BME280;59840;52.122;5.404;2023-02-19T07:21:41;102228.56;;;8.33;100.00
71974;BME280;59840;52.122;5.404;2023-02-19T07:24:08;102253.84;;;8.34;100.00
71974;BME280;59840;52.122;5.404;2023-02-19T07:26:35;102243.72;;;8.31;100.00
71974;BME280;59840;52.122;5.404;2023-02-19T07:29:02;102247.34;;;8.30;100.00
71974;BME280;59840;52.122;5.404;2023-02-19T07:31:28;102253.41;;;8.30;100.00
71974;BME280;59840;52.122;5.404;2023-02-19T07:33:55;102258.28;;;8.33;100.00
71974;BME280;59840;52.122;5.404;2023-02-19T07:36:22;102256.47;;;8.34;100.00
71974;BME280;59840;52.122;5.404;2023-02-19T07:38:55;102269.44;;;8.35;100.00
71974;BME280;59840;52.122;5.404;2023-02-19T07:41:23;102272.69;;;8.37;100.00
71974;BME280;59840;52.122;5.404;2023-02-19T07:43:50;102270.47;;;8.41;100.00
71974;BME280;59840;52.122;5.404;2023-02-19T07:46:17;102258.56;;;8.45;100.00
71974;BME280;59840;52.122;5.404;2023-02-19T07:48:44;102262.19;;;8.44;100.00
71974;BME280;59840;52.122;5.404;2023-02-19T07:51:14;102270.72;;;8.46;100.00
71974;BME280;59840;52.122;5.404;2023-02-19T07:53:45;102284.88;;;8.45;100.00
71974;BME280;59840;52.122;5.404;2023-02-19T07:56:12;102281.41;;;8.45;100.00
71974;BME280;59840;52.122;5.404;2023-02-19T07:58:39;102287.31;;;8.47;100.00
71974;BME280;59840;52.122;5.404;2023-02-19T08:01:13;102286.09;;;8.49;100.00
71974;BME280;59840;52.122;5.404;2023-02-19T08:03:41;102292.19;;;8.50;100.00
71974;BME280;59840;52.122;5.404;2023-02-19T08:06:09;102288.72;;;8.49;100.00
71974;BME280;59840;52.122;5.404;2023-02-19T08:08:39;102302.69;;;8.50;100.00
71974;BME280;59840;52.122;5.404;2023-02-19T08:11:06;102298.25;;;8.50;100.00
71974;BME280;59840;52.122;5.404;2023-02-19T08:13:52;102305.13;;;8.51;100.00
71974;BME280;59840;52.122;5.404;2023-02-19T08:16:19;102307.19;;;8.56;100.00
71974;BME280;59840;52.122;5.404;2023-02-19T08:19:06;102309.25;;;8.60;100.00
71974;BME280;59840;52.122;5.404;2023-02-19T08:21:32;102315.75;;;8.64;100.00
71974;BME280;59840;52.122;5.404;2023-02-19T08:23:59;102326.25;;;8.64;100.00
71974;BME280;59840;52.122;5.404;2023-02-19T08:26:26;102323.22;;;8.67;100.00
71974;BME280;59840;52.122;5.404;2023-02-19T08:28:52;102330.53;;;8.65;100.00
71974;BME280;59840;52.122;5.404;2023-02-19T08:31:19;102340.44;;;8.63;100.00
71974;BME280;59840;52.122;5.404;2023-02-19T08:33:46;102347.91;;;8.60;100.00
71974;BME280;59840;52.122;5.404;2023-02-19T08:36:12;102337.56;;;8.58;100.00
71974;BME280;59840;52.122;5.404;2023-02-19T08:38:39;102343.25;;;8.62;100.00
71974;BME280;59840;52.122;5.404;2023-02-19T08:41:07;102350.13;;;8.63;100.00
71974;BME280;59840;52.122;5.404;2023-02-19T08:43:35;102347.31;;;8.71;100.00
71974;BME280;59840;52.122;5.404;2023-02-19T08:46:02;102347.38;;;8.78;100.00
71974;BME280;59840;52.122;5.404;2023-02-19T08:48:29;102359.13;;;8.82;100.00
71974;BME280;59840;52.122;5.404;2023-02-19T08:50:59;102357.78;;;8.92;100.00
71974;BME280;59840;52.122;5.404;2023-02-19T08:53:25;102357.97;;;8.91;100.00
71974;BME280;59840;52.122;5.404;2023-02-19T08:55:52;102356.75;;;8.93;100.00
71974;BME280;59840;52.122;5.404;2023-02-19T08:58:19;102352.31;;;8.94;100.00
71974;BME280;59840;52.122;5.404;2023-02-19T09:00:46;102354.75;;;8.95;100.00
71974;BME280;59840;52.122;5.404;2023-02-19T09:03:13;102361.25;;;8.99;100.00
71974;BME280;59840;52.122;5.404;2023-02-19T09:05:40;102357.63;;;9.07;100.00
71974;BME280;59840;52.122;5.404;2023-02-19T09:08:07;102354.19;;;9.13;100.00
71974;BME280;59840;52.122;5.404;2023-02-19T09:10:34;102342.72;;;9.27;100.00
71974;BME280;59840;52.122;5.404;2023-02-19T09:13:00;102354.06;;;9.41;100.00
71974;BME280;59840;52.122;5.404;2023-02-19T09:15:28;102357.50;;;9.41;100.00
71974;BME280;59840;52.122;5.404;2023-02-19T09:17:55;102374.94;;;9.43;100.00
71974;BME280;59840;52.122;5.404;2023-02-19T09:20:21;102383.25;;;9.39;100.00
71974;BME280;59840;52.122;5.404;2023-02-19T09:22:48;102373.91;;;9.30;100.00
71974;BME280;59840;52.122;5.404;2023-02-19T09:25:15;102379.41;;;9.35;100.00
71974;BME280;59840;52.122;5.404;2023-02-19T09:27:42;102387.69;;;9.26;100.00
71974;BME280;59840;52.122;5.404;2023-02-19T09:30:09;102388.09;;;9.29;100.00
71974;BME280;59840;52.122;5.404;2023-02-19T09:32:35;102395.03;;;9.44;100.00
71974;BME280;59840;52.122;5.404;2023-02-19T09:35:02;102411.03;;;9.35;100.00
71974;BME280;59840;52.122;5.404;2023-02-19T09:37:29;102423.97;;;9.30;100.00
71974;BME280;59840;52.122;5.404;2023-02-19T09:39:58;102417.81;;;9.17;100.00
71974;BME280;59840;52.122;5.404;2023-02-19T09:42:27;102425.34;;;9.20;100.00
71974;BME280;59840;52.122;5.404;2023-02-19T09:44:57;102422.28;;;9.16;100.00
71974;BME280;59840;52.122;5.404;2023-02-19T09:47:29;102437.22;;;9.09;100.00
71974;BME280;59840;52.122;5.404;2023-02-19T09:50:04;102447.13;;;9.07;100.00
71974;BME280;59840;52.122;5.404;2023-02-19T09:52:37;102441.88;;;9.07;100.00
71974;BME280;59840;52.122;5.404;2023-02-19T09:55:30;102457.28;;;9.10;100.00
71974;BME280;59840;52.122;5.404;2023-02-19T09:58:16;102456.28;;;9.11;100.00
71974;BME280;59840;52.122;5.404;2023-02-19T10:00:45;102456.47;;;9.10;100.00
71974;BME280;59840;52.122;5.404;2023-02-19T10:06:02;102467.66;;;9.18;100.00
71974;BME280;59840;52.122;5.404;2023-02-19T10:08:34;102474.94;;;9.16;100.00
71974;BME280;59840;52.122;5.404;2023-02-19T10:11:03;102487.25;;;9.09;100.00
71974;BME280;59840;52.122;5.404;2023-02-19T10:13:38;102497.09;;;8.94;100.00
71974;BME280;59840;52.122;5.404;2023-02-19T10:16:11;102506.19;;;8.63;100.00
71974;BME280;59840;52.122;5.404;2023-02-19T10:18:42;102502.06;;;8.33;100.00
71974;BME280;59840;52.122;5.404;2023-02-19T10:21:13;102520.41;;;8.26;100.00
71974;BME280;59840;52.122;5.404;2023-02-19T10:23:41;102516.06;;;8.19;100.00
71974;BME280;59840;52.122;5.404;2023-02-19T10:26:09;102519.78;;;8.24;100.00
71974;BME280;59840;52.122;5.404;2023-02-19T10:28:36;102519.09;;;8.37;100.00
71974;BME280;59840;52.122;5.404;2023-02-19T10:31:10;102527.19;;;8.35;100.00
71974;BME280;59840;52.122;5.404;2023-02-19T10:33:48;102536.38;;;8.25;100.00
71974;BME280;59840;52.122;5.404;2023-02-19T10:38:49;102549.00;;;8.15;100.00
71974;BME280;59840;52.122;5.404;2023-02-19T10:41:18;102541.91;;;8.15;100.00
71974;BME280;59840;52.122;5.404;2023-02-19T10:44:08;102542.63;;;8.24;100.00
71974;BME280;59840;52.122;5.404;2023-02-19T10:46:44;102545.84;;;8.40;100.00
71974;BME280;59840;52.122;5.404;2023-02-19T10:49:39;102541.41;;;8.41;100.00
71974;BME280;59840;52.122;5.404;2023-02-19T10:52:14;102544.84;;;8.42;100.00
71974;BME280;59840;52.122;5.404;2023-02-19T10:54:43;102553.41;;;8.29;100.00
71974;BME280;59840;52.122;5.404;2023-02-19T10:59:59;102548.00;;;8.16;100.00
71974;BME280;59840;52.122;5.404;2023-02-19T11:02:28;102547.25;;;8.22;100.00
71974;BME280;59840;52.122;5.404;2023-02-19T11:07:35;102526.69;;;8.32;100.00
71974;BME280;59840;52.122;5.404;2023-02-19T11:10:04;102527.00;;;8.37;100.00
71974;BME280;59840;52.122;5.404;2023-02-19T11:12:33;102538.06;;;8.32;100.00
71974;BME280;59840;52.122;5.404;2023-02-19T11:17:44;102548.69;;;8.24;100.00
71974;BME280;59840;52.122;5.404;2023-02-19T11:20:16;102548.16;;;8.29;100.00
71974;BME280;59840;52.122;5.404;2023-02-19T11:22:43;102556.28;;;8.34;100.00
71974;BME280;59840;52.122;5.404;2023-02-19T11:28:16;102553.63;;;8.13;100.00
71974;BME280;59840;52.122;5.404;2023-02-19T11:30:46;102556.44;;;8.11;100.00
71974;BME280;59840;52.122;5.404;2023-02-19T11:35:43;102542.38;;;8.19;100.00
71974;BME280;59840;52.122;5.404;2023-02-19T11:38:11;102554.69;;;8.18;100.00
71974;BME280;59840;52.122;5.404;2023-02-19T11:53:48;102566.59;;;8.14;100.00
71974;BME280;59840;52.122;5.404;2023-02-19T11:56:25;102556.63;;;8.10;100.00
71974;BME280;59840;52.122;5.404;2023-02-19T11:59:00;102554.91;;;8.02;99.82
71974;BME280;59840;52.122;5.404;2023-02-19T12:22:29;102575.47;;;7.48;100.00
71974;BME280;59840;52.122;5.404;2023-02-19T12:27:55;102577.06;;;7.19;100.00
71974;BME280;59840;52.122;5.404;2023-02-19T12:33:38;102572.19;;;7.16;100.00
71974;BME280;59840;52.122;5.404;2023-02-19T12:41:56;102595.97;;;7.15;100.00
71974;BME280;59840;52.122;5.404;2023-02-19T12:47:06;102587.56;;;7.19;100.00
71974;BME280;59840;52.122;5.404;2023-02-19T12:49:39;102587.22;;;7.22;100.00
71974;BME280;59840;52.122;5.404;2023-02-19T12:52:24;102609.03;;;7.23;100.00
71974;BME280;59840;52.122;5.404;2023-02-19T12:54:53;102610.81;;;7.07;100.00
71974;BME280;59840;52.122;5.404;2023-02-19T12:57:33;102616.75;;;7.01;100.00
71974;BME280;59840;52.122;5.404;2023-02-19T13:00:20;102619.38;;;7.01;100.00
71974;BME280;59840;52.122;5.404;2023-02-19T13:03:05;102624.28;;;7.04;100.00
71974;BME280;59840;52.122;5.404;2023-02-19T13:10:46;102631.88;;;6.99;100.00
71974;BME280;59840;52.122;5.404;2023-02-19T13:13:29;102636.94;;;7.01;100.00
71974;BME280;59840;52.122;5.404;2023-02-19T13:16:05;102646.16;;;6.97;100.00
71974;BME280;59840;52.122;5.404;2023-02-19T13:18:41;102648.78;;;6.97;100.00
71974;BME280;59840;52.122;5.404;2023-02-19T13:21:10;102657.13;;;7.00;100.00
71974;BME280;59840;52.122;5.404;2023-02-19T13:23:40;102651.53;;;7.03;100.00
71974;BME280;59840;52.122;5.404;2023-02-19T13:30:10;102685.25;;;6.92;100.00
71974;BME280;59840;52.122;5.404;2023-02-19T13:33:18;102673.88;;;6.77;100.00
71974;BME280;59840;52.122;5.404;2023-02-19T13:38:35;102668.13;;;6.73;100.00
71974;BME280;59840;52.122;5.404;2023-02-19T13:41:03;102674.84;;;6.76;100.00
71974;BME280;59840;52.122;5.404;2023-02-19T13:43:35;102675.31;;;6.79;100.00
71974;BME280;59840;52.122;5.404;2023-02-19T13:46:10;102673.00;;;6.84;100.00
71974;BME280;59840;52.122;5.404;2023-02-19T13:48:39;102693.47;;;6.89;100.00
71974;BME280;59840;52.122;5.404;2023-02-19T14:02:04;102684.00;;;7.25;99.68
71974;BME280;59840;52.122;5.404;2023-02-19T14:09:43;102688.88;;;7.28;97.41
71974;BME280;59840;52.122;5.404;2023-02-19T14:31:02;102672.09;;;7.52;97.02
71974;BME280;59840;52.122;5.404;2023-02-19T14:33:37;102675.56;;;7.53;97.04
71974;BME280;59840;52.122;5.404;2023-02-19T14:36:13;102666.03;;;7.52;94.95
71974;BME280;59840;52.122;5.404;2023-02-19T14:41:29;102651.91;;;7.67;95.01
71974;BME280;59840;52.122;5.404;2023-02-19T14:43:58;102652.44;;;7.63;93.40
71974;BME280;59840;52.122;5.404;2023-02-19T14:46:55;102642.69;;;7.57;93.97
71974;BME280;59840;52.122;5.404;2023-02-19T14:49:44;102637.31;;;7.65;93.86
71974;BME280;59840;52.122;5.404;2023-02-19T14:52:33;102641.03;;;7.70;94.16
71974;BME280;59840;52.122;5.404;2023-02-19T14:55:22;102643.84;;;7.69;92.80
71974;BME280;59840;52.122;5.404;2023-02-19T14:57:52;102644.47;;;7.71;92.22
71974;BME280;59840;52.122;5.404;2023-02-19T15:00:28;102637.13;;;7.66;91.67
71974;BME280;59840;52.122;5.404;2023-02-19T15:02:56;102628.44;;;7.66;91.22
71974;BME280;59840;52.122;5.404;2023-02-19T15:05:29;102625.38;;;7.77;92.67
71974;BME280;59840;52.122;5.404;2023-02-19T15:07:58;102636.34;;;7.95;92.11
71974;BME280;59840;52.122;5.404;2023-02-19T15:10:28;102626.69;;;8.02;91.29
71974;BME280;59840;52.122;5.404;2023-02-19T15:12:58;102627.97;;;8.06;91.63
71974;BME280;59840;52.122;5.404;2023-02-19T15:15:28;102633.94;;;8.00;92.17
71974;BME280;59840;52.122;5.404;2023-02-19T15:17:56;102644.47;;;8.00;91.44
71974;BME280;59840;52.122;5.404;2023-02-19T15:20:27;102661.50;;;8.04;92.64
71974;BME280;59840;52.122;5.404;2023-02-19T15:22:55;102666.31;;;8.01;92.73
71974;BME280;59840;52.122;5.404;2023-02-19T15:25:29;102662.22;;;7.98;93.53
71974;BME280;59840;52.122;5.404;2023-02-19T15:28:38;102685.00;;;7.91;93.03
71974;BME280;59840;52.122;5.404;2023-02-19T15:31:05;102686.16;;;7.74;94.13